Islamabad, Pakistan
Current Conditions -  °F | °C
As of 11:00 PM on Wednesday 26 Nov 2014 (Local Time) from OPRN Reporting Station
Haze Haze  
Wind Chill: 55°   Ceiling: Unl
Heat Index: 55°   Visibility: 1.8mi
Dew Point: 46°   Wind: 0mph
Humidity: 72%   Direction: NA
Pressure: NA   Gusts: NA
Location:  33.72°N, 73.06°E
Report Text: OPRN 261800Z 00000KT 3000 HZ FEW200 13/08 Q1012/29.91
Loading
Personal Weather Stations






























Interactive Weather Map New forecast layout! Learn more

10-Day Weather Forecast

Advertisements
Track Severe Weather on mobile